Paynesville, MN

6:53 AM CDT on August 19, 2017 (GMT -0500)
Paynesville

Weather History for KPEX - January, 2014

Change the Weather History Date:

Wednesday, January 29, 2014

  Actual Average (KLJF) Record (KLJF)
Temperature  
Mean Temperature 10 °F -  
Max Temperature 29 °F 22 °F 45 °F (1990)
Min Temperature -10 °F 2 °F -34 °F (1951)
Degree Days  
Heating Degree Days 56    
Moisture  
Dew Point 1 °F    
Average Humidity 68    
Maximum Humidity 79    
Minimum Humidity 54    
Precipitation  
Precipitation 0.00 in - - ()
Sea Level Pressure  
Sea Level Pressure 29.74 in    
Wind  
Wind Speed 8 mph (SSW)    
Max Wind Speed 20 mph    
Max Gust Speed 28 mph    
Visibility 10 miles    
Events      
Averages and records for this station are not official NWS values.
T = Trace of Precipitation, MM = Missing Value Source: NWS Daily Summary

Daily Weather History Graph

Daily Weather History Graph

Search for Another Location

Airport or City:

Trip Planner

Search our weather history database for the weather conditions in past years. The results will help you decide how hot, cold, wet, or windy it might be!

Date:

Astronomy

Jan. 29, 2014 Rise Set
Actual Time 7:43 AM CST 5:21 PM CST
Civil Twilight 7:11 AM CST 5:53 PM CST
Nautical Twilight 6:35 AM CST 6:29 PM CST
Astronomical Twilight 6:00 AM CST 7:03 PM CST
Moon 6:20 AM CST (1/29) 4:22 PM CST (1/29)
Length of Visible Light 10h 42m
Length of Day
9h 38m
Waning Crescent, 2% of the Moon is Illuminated
Jan 29
Waning Crescent
Jan 30
New
Feb 6
First Quarter
Feb 14
Full
Feb 22
Last Quarter

Hourly Weather History & Observations

Time (CST) Temp. Windchill Dew Point Humidity Pressure Visibility Wind Dir Wind Speed Gust Speed Precip Events Conditions
12:12 AM -10.3 °F -26.7 °F -16.4 °F 74% 30.04 in 10.0 mi WSW 8.1 mph - N/A   Clear
12:32 AM -8.7 °F -25.9 °F -15.0 °F 74% 30.03 in 10.0 mi WSW 9.2 mph - N/A   Clear
12:53 AM -8.1 °F -24.1 °F -14.6 °F 73% 30.03 in 10.0 mi WSW 8.1 mph - N/A   Clear
1:12 AM -7.2 °F -24.2 °F -14.1 °F 72% 30.02 in 10.0 mi WSW 9.2 mph - N/A   Clear
1:32 AM -8.1 °F -24.1 °F -14.8 °F 73% 30.01 in 10.0 mi WSW 8.1 mph - N/A   Clear
1:53 AM -8.3 °F -23.0 °F -14.6 °F 74% 30.01 in 10.0 mi West 6.9 mph - N/A   Clear
2:12 AM -6.2 °F -21.7 °F -12.8 °F 73% 30.00 in 10.0 mi WSW 8.1 mph - N/A   Clear
2:32 AM -7.1 °F -22.8 °F -13.7 °F 73% 30.00 in 10.0 mi West 8.1 mph - N/A   Clear
2:52 AM -6.7 °F -23.5 °F -13.2 °F 73% 29.99 in 10.0 mi WSW 9.2 mph - N/A   Clear
3:13 AM -4.0 °F -17.8 °F -11.2 °F 71% 29.98 in 10.0 mi SSW 6.9 mph - N/A   Clear
3:32 AM -5.1 °F -17.6 °F -12.3 °F 71% 29.98 in 10.0 mi SSW 5.8 mph - N/A   Clear
3:53 AM -5.8 °F -16.7 °F -12.5 °F 73% 29.98 in 10.0 mi SSW 4.6 mph - N/A   Clear
4:13 AM -6.0 °F -14.7 °F -12.5 °F 74% 29.96 in 10.0 mi SSW 3.5 mph - N/A   Clear
4:32 AM -6.0 °F -16.9 °F -12.6 °F 73% 29.96 in 10.0 mi SW 4.6 mph - N/A   Clear
4:53 AM -7.1 °F -18.1 °F -12.5 °F 77% 29.94 in 10.0 mi SSW 4.6 mph - N/A   Clear
5:12 AM -4.2 °F - -10.8 °F 73% 29.94 in 10.0 mi Calm Calm - N/A   Clear
5:32 AM -5.3 °F -13.8 °F -11.6 °F 74% 29.93 in 10.0 mi SSW 3.5 mph - N/A   Clear
5:53 AM -4.9 °F -13.4 °F -11.2 °F 74% 29.92 in 10.0 mi SSW 3.5 mph - N/A   Clear
6:13 AM -5.3 °F -13.8 °F -11.2 °F 76% 29.91 in 10.0 mi SW 3.5 mph - N/A   Clear
6:32 AM -4.7 °F -13.2 °F -10.7 °F 76% 29.89 in 10.0 mi SSW 3.5 mph - N/A   Clear
6:53 AM -4.7 °F -15.4 °F -10.7 °F 76% 29.89 in 10.0 mi South 4.6 mph - N/A   Clear
7:12 AM -4.4 °F -12.8 °F -10.5 °F 75% 29.89 in 10.0 mi South 3.5 mph - N/A   Clear
7:32 AM -4.4 °F -16.7 °F -10.5 °F 75% 29.88 in 10.0 mi SSW 5.8 mph - N/A   Clear
7:53 AM -4.4 °F -16.7 °F -10.5 °F 75% 29.86 in 10.0 mi South 5.8 mph - N/A   Clear
8:13 AM -3.6 °F -15.9 °F -9.9 °F 74% 29.86 in 10.0 mi South 5.8 mph - N/A   Clear
8:32 AM -2.2 °F -12.5 °F -9.0 °F 73% 29.84 in 10.0 mi South 4.6 mph - N/A   Clear
8:52 AM -0.9 °F -12.7 °F -8.1 °F 72% 29.85 in 10.0 mi SSW 5.8 mph - N/A   Clear
9:13 AM 1.0 °F -12.9 °F -6.9 °F 69% 29.84 in 10.0 mi SSW 8.1 mph - N/A   Clear
9:32 AM 3.2 °F -9.1 °F -5.8 °F 66% 29.83 in 10.0 mi South 6.9 mph - N/A   Clear
9:53 AM 4.8 °F -8.3 °F -4.7 °F 65% 29.82 in 10.0 mi South 8.1 mph - N/A   Clear
10:12 AM 6.4 °F -9.0 °F -4.0 °F 62% 29.82 in 10.0 mi South 11.5 mph - N/A   Clear
10:32 AM 8.1 °F -5.3 °F -3.1 °F 60% 29.81 in 10.0 mi South 9.2 mph - N/A   Clear
10:53 AM 10.0 °F -3.7 °F -2.0 °F 58% 29.80 in 10.0 mi South 10.4 mph - N/A   Clear
11:12 AM 12.2 °F -3.1 °F -1.1 °F 55% 29.79 in 10.0 mi South 13.8 mph - N/A   Clear
11:32 AM 13.8 °F 1.8 °F 0.1 °F 55% 29.76 in 10.0 mi South 9.2 mph - N/A   Clear
11:53 AM 15.1 °F 0.5 °F 1.4 °F 55% 29.74 in 10.0 mi South 13.8 mph - N/A   Clear
12:12 PM 16.3 °F 1.0 °F 2.3 °F 54% 29.71 in 10.0 mi South 16.1 mph 21.9 mph N/A   Clear
12:33 PM 17.4 °F 2.4 °F 3.6 °F 55% 29.69 in 10.0 mi South 16.1 mph 24.2 mph N/A   Clear
12:52 PM 18.5 °F 2.9 °F 5.0 °F 56% 29.66 in 10.0 mi South 18.4 mph 24.2 mph N/A   Clear
1:12 PM 19.9 °F 5.7 °F 6.6 °F 56% 29.64 in 10.0 mi SSE 16.1 mph 21.9 mph N/A   Clear
1:33 PM 21.0 °F 6.2 °F 7.2 °F 55% 29.62 in 10.0 mi SSE 18.4 mph 25.3 mph N/A   Clear
1:53 PM 22.1 °F 8.5 °F 8.8 °F 57% 29.60 in 10.0 mi South 16.1 mph 24.2 mph N/A   Clear
2:13 PM 23.4 °F 11.1 °F 10.0 °F 57% 29.59 in 10.0 mi South 13.8 mph 25.3 mph N/A   Clear
2:32 PM 24.4 °F 10.6 °F 11.3 °F 57% 29.58 in 10.0 mi SSE 18.4 mph 25.3 mph N/A   Scattered Clouds
2:52 PM 25.5 °F 12.4 °F 12.4 °F 58% 29.57 in 10.0 mi South 17.3 mph 27.6 mph N/A   Clear
3:13 PM 26.6 °F 16.2 °F 14.0 °F 59% 29.57 in 10.0 mi South 11.5 mph 18.4 mph N/A   Scattered Clouds
3:32 PM 27.3 °F 16.6 °F 14.5 °F 59% 29.57 in 10.0 mi South 12.7 mph 20.7 mph N/A   Mostly Cloudy
3:52 PM 28.2 °F 17.2 °F 14.9 °F 57% 29.57 in 10.0 mi SSW 13.8 mph 19.6 mph N/A   Scattered Clouds
4:13 PM 29.3 °F 19.1 °F 15.6 °F 57% 29.56 in 10.0 mi SSW 12.7 mph - N/A   Scattered Clouds
4:33 PM 29.7 °F 19.1 °F 16.3 °F 58% 29.56 in 10.0 mi SSW 13.8 mph 20.7 mph N/A   Clear
4:52 PM 29.3 °F 19.6 °F 16.7 °F 59% 29.56 in 10.0 mi SW 11.5 mph 17.3 mph N/A   Clear
5:13 PM 29.3 °F 19.1 °F 16.5 °F 59% 29.56 in 10.0 mi SW 12.7 mph 20.7 mph N/A   Clear
5:33 PM 28.9 °F 16.1 °F 16.5 °F 60% 29.56 in 10.0 mi SW 19.6 mph 24.2 mph N/A   Clear
5:52 PM 28.2 °F 17.7 °F 16.9 °F 63% 29.56 in 10.0 mi WSW 12.7 mph - N/A   Clear
6:12 PM 27.3 °F 17.1 °F 16.7 °F 64% 29.57 in 10.0 mi WSW 11.5 mph - N/A   Scattered Clouds
6:33 PM 25.9 °F 16.6 °F 15.4 °F 65% 29.57 in 10.0 mi SW 9.2 mph - N/A   Scattered Clouds
6:52 PM 23.5 °F 14.5 °F 14.7 °F 69% 29.57 in 10.0 mi SW 8.1 mph - N/A   Clear
7:12 PM 22.6 °F 12.6 °F 14.4 °F 71% 29.57 in 10.0 mi SW 9.2 mph - N/A   Clear
7:32 PM 22.6 °F 14.3 °F 14.0 °F 69% 29.56 in 10.0 mi SW 6.9 mph - N/A   Clear
7:52 PM 22.5 °F 15.1 °F 13.6 °F 69% 29.56 in 10.0 mi SW 5.8 mph - N/A   Clear
8:13 PM 20.3 °F 13.8 °F 13.1 °F 74% 29.56 in 10.0 mi WSW 4.6 mph - N/A   Clear
8:33 PM 19.2 °F - 12.6 °F 75% 29.56 in 10.0 mi Calm Calm - N/A   Clear
8:52 PM 19.0 °F - 12.2 °F 75% 29.56 in 10.0 mi Calm Calm - N/A   Scattered Clouds
9:12 PM 19.9 °F 13.4 °F 12.7 °F 74% 29.56 in 10.0 mi WNW 4.6 mph - N/A   Scattered Clouds
9:33 PM 21.6 °F 15.3 °F 13.8 °F 72% 29.56 in 10.0 mi West 4.6 mph - N/A   Clear
9:52 PM 21.2 °F - 13.8 °F 73% 29.56 in 10.0 mi Calm Calm - N/A   Clear
10:12 PM 19.9 °F - 13.3 °F 75% 29.55 in 10.0 mi Calm Calm - N/A   Clear
10:33 PM 19.8 °F - 13.1 °F 75% 29.54 in 10.0 mi Calm Calm - N/A   Clear
10:52 PM 18.5 °F - 12.9 °F 79% 29.55 in 10.0 mi Calm Calm - N/A   Mostly Cloudy
11:12 PM 19.0 °F - 12.7 °F 76% 29.55 in 10.0 mi Calm Calm - N/A   Overcast
11:32 PM 18.5 °F - 12.6 °F 78% 29.54 in 10.0 mi Calm Calm - N/A   Overcast
11:52 PM 19.2 °F - 12.2 °F 74% 29.54 in 10.0 mi Calm Calm - N/A   Overcast